Time;durP1;ratioP1;P1;durP2;ratioP2;P2;SDS_P1;SDS_P2;PMS_P1;PMS_P2;Temp;Humidity;BMP_temperature;BMP_pressure;BME280_temperature;BME280_humidity;BME280_pressure;Samples;Min_cycle;Max_cycle;Signal;HPM_P1;HPM_P2
2022/12/05 00:00:15;;;;;;;6.20;2.28;;;23.80;47.90;;;;;;5048808;28;20200;-52
2022/12/05 00:02:45;;;;;;;7.50;2.17;;;23.80;47.90;;;;;;5052181;28;20209;-48
2022/12/05 00:05:16;;;;;;;8.05;2.42;;;23.80;47.90;;;;;;5051976;28;20195;-52
2022/12/05 00:07:47;;;;;;;7.25;2.10;;;23.80;47.90;;;;;;5051626;28;20220;-48
2022/12/05 00:10:20;;;;;;;9.40;2.65;;;23.80;48.00;;;;;;5051130;28;20202;-50
2022/12/05 00:12:51;;;;;;;6.57;2.30;;;23.80;48.00;;;;;;5032112;28;20215;-52
2022/12/05 00:15:22;;;;;;;7.75;2.20;;;23.80;48.10;;;;;;5045576;28;20257;-54
2022/12/05 00:17:53;;;;;;;7.43;1.90;;;23.80;48.10;;;;;;5051236;28;20211;-54
2022/12/05 00:20:23;;;;;;;6.65;2.40;;;23.80;48.10;;;;;;5049843;28;20196;-56
2022/12/05 00:22:54;;;;;;;6.65;2.30;;;23.80;48.20;;;;;;5037470;28;20204;-51
2022/12/05 00:25:27;;;;;;;4.88;1.65;;;23.80;48.20;;;;;;5044442;28;20222;-51
2022/12/05 00:27:57;;;;;;;6.53;2.28;;;23.80;48.10;;;;;;5036675;28;20220;-50
2022/12/05 00:30:28;;;;;;;4.95;1.90;;;23.80;48.10;;;;;;5032655;28;20200;-49
2022/12/05 00:32:59;;;;;;;6.78;2.35;;;23.80;48.10;;;;;;5045218;28;20203;-48
2022/12/05 00:35:30;;;;;;;8.93;2.75;;;23.80;48.20;;;;;;5052445;28;20579;-54
2022/12/05 00:38:01;;;;;;;8.27;2.53;;;23.80;48.20;;;;;;5036082;28;20216;-53
2022/12/05 00:40:36;;;;;;;8.88;2.08;;;23.80;48.20;;;;;;5039332;28;20204;-49
2022/12/05 00:43:07;;;;;;;6.00;2.33;;;23.80;48.30;;;;;;5040011;28;20207;-51
2022/12/05 00:45:37;;;;;;;9.77;2.30;;;23.80;48.20;;;;;;5051151;28;20199;-51
2022/12/05 00:48:08;;;;;;;6.20;2.25;;;23.80;48.30;;;;;;5031958;28;20220;-55
2022/12/05 00:50:40;;;;;;;7.55;2.03;;;23.80;48.30;;;;;;5034041;28;20573;-48
2022/12/05 00:53:10;;;;;;;5.45;1.88;;;23.80;48.30;;;;;;5042945;28;20204;-51
2022/12/05 00:55:43;;;;;;;6.90;2.42;;;23.80;48.20;;;;;;5037861;28;20218;-48
2022/12/05 00:58:13;;;;;;;9.73;2.80;;;23.80;48.20;;;;;;5030944;28;20224;-49
2022/12/05 01:00:46;;;;;;;6.40;2.10;;;23.80;48.30;;;;;;5031415;28;20208;-51
2022/12/05 01:03:17;;;;;;;6.55;2.30;;;23.90;48.20;;;;;;5030978;28;20195;-49
2022/12/05 01:05:48;;;;;;;7.35;2.38;;;23.90;48.20;;;;;;5031259;28;20223;-49
2022/12/05 01:08:18;;;;;;;6.90;2.28;;;23.80;48.20;;;;;;5035111;28;20254;-50
2022/12/05 01:10:58;;;;;;;8.15;2.15;;;23.90;48.30;;;;;;5036336;28;20667;-53
2022/12/05 01:13:29;;;;;;;6.93;2.40;;;23.90;48.30;;;;;;5031126;28;20204;-50
2022/12/05 01:16:00;;;;;;;6.82;2.20;;;23.90;48.20;;;;;;5031010;28;20202;-49
2022/12/05 01:18:31;;;;;;;6.88;2.28;;;23.90;48.20;;;;;;5030547;28;20232;-50
2022/12/05 01:21:02;;;;;;;8.30;2.42;;;23.90;48.20;;;;;;5031258;28;20203;-51
2022/12/05 01:23:32;;;;;;;8.02;2.33;;;23.90;48.20;;;;;;5031395;28;20556;-49
2022/12/05 01:26:08;;;;;;;8.07;2.45;;;23.90;48.20;;;;;;5031042;28;20207;-51
2022/12/05 01:28:40;;;;;;;7.57;2.42;;;23.90;48.20;;;;;;5030654;28;20562;-48
2022/12/05 01:31:20;;;;;;;5.85;2.38;;;23.90;48.20;;;;;;5043342;28;20202;-51
2022/12/05 01:33:51;;;;;;;6.97;2.47;;;23.90;48.20;;;;;;5031595;28;20210;-55
2022/12/05 01:36:23;;;;;;;8.48;2.80;;;23.90;48.20;;;;;;5032729;28;20286;-50
2022/12/05 01:38:54;;;;;;;7.15;2.63;;;23.90;48.20;;;;;;5051421;28;20720;-51
2022/12/05 01:41:29;;;;;;;5.63;2.13;;;23.90;48.20;;;;;;5048567;28;20644;-50
2022/12/05 01:44:03;;;;;;;7.53;2.30;;;23.90;48.10;;;;;;5030265;28;20211;-50
2022/12/05 01:46:35;;;;;;;8.48;2.20;;;23.90;48.10;;;;;;5030611;28;20290;-48
2022/12/05 01:49:10;;;;;;;4.45;1.73;;;23.90;48.10;;;;;;5038068;28;20236;-50
2022/12/05 01:51:43;;;;;;;6.63;2.30;;;23.90;48.10;;;;;;5034605;28;20196;-52
2022/12/05 01:54:15;;;;;;;10.07;2.75;;;23.90;48.10;;;;;;5031049;28;20204;-56
2022/12/05 01:56:51;;;;;;;6.68;1.73;;;23.90;48.10;;;;;;5036019;28;20203;-49
2022/12/05 01:59:24;;;;;;;5.70;2.13;;;23.80;48.10;;;;;;5047015;28;20680;-53
2022/12/05 02:01:55;;;;;;;7.05;2.30;;;23.90;48.20;;;;;;5031299;28;20188;-49
2022/12/05 02:04:26;;;;;;;8.45;2.67;;;23.90;48.20;;;;;;5030561;28;20207;-51
2022/12/05 02:06:57;;;;;;;6.30;2.40;;;23.80;48.10;;;;;;5031398;28;20199;-50
2022/12/05 02:09:29;;;;;;;6.70;2.30;;;23.90;48.20;;;;;;5030216;28;20597;-48
2022/12/05 02:12:04;;;;;;;6.85;2.08;;;23.80;48.10;;;;;;5036072;28;20200;-49
2022/12/05 02:14:42;;;;;;;5.65;2.28;;;23.80;48.10;;;;;;5030774;28;20208;-51
2022/12/05 02:17:20;;;;;;;8.05;2.20;;;23.80;48.20;;;;;;5030673;28;20203;-53
2022/12/05 02:20:05;;;;;;;7.85;2.42;;;23.80;48.20;;;;;;5030473;28;20238;-58
2022/12/05 02:23:13;;;;;;;9.73;2.70;;;23.80;48.20;;;;;;5030627;28;20244;-58
2022/12/05 02:26:09;;;;;;;7.70;2.40;;;23.80;48.20;;;;;;5015498;28;20657;-58
2022/12/05 02:29:11;;;;;;;14.70;3.53;;;23.80;48.20;;;;;;5030286;28;20264;-60
2022/12/05 02:31:50;;;;;;;13.73;3.13;;;23.80;48.50;;;;;;5030776;28;20660;-49
2022/12/05 02:34:27;;;;;;;12.25;3.17;;;23.60;48.80;;;;;;5030284;28;20207;-48
2022/12/05 02:37:06;;;;;;;12.85;3.22;;;23.50;49.00;;;;;;5041826;28;20227;-54
2022/12/05 02:39:44;;;;;;;13.45;3.72;;;23.40;49.00;;;;;;5043860;28;20238;-52
2022/12/05 02:42:22;;;;;;;13.60;3.30;;;23.40;49.10;;;;;;5046368;28;20230;-48
2022/12/05 02:44:58;;;;;;;14.30;4.05;;;23.40;49.20;;;;;;5031066;28;20652;-49
2022/12/05 02:47:41;;;;;;;10.50;3.17;;;23.40;49.20;;;;;;5038223;28;20187;-48
2022/12/05 02:50:15;;;;;;;10.45;2.85;;;23.40;49.20;;;;;;5044107;28;20787;-48
2022/12/05 02:52:50;;;;;;;9.75;2.97;;;23.40;49.20;;;;;;5045507;28;20195;-53
2022/12/05 02:55:22;;;;;;;10.60;3.20;;;23.40;49.20;;;;;;5050391;28;20202;-51
2022/12/05 02:57:58;;;;;;;8.57;3.10;;;23.40;49.20;;;;;;5041976;28;20204;-55
2022/12/05 03:00:29;;;;;;;11.05;2.90;;;23.40;49.30;;;;;;5040396;28;20226;-52
2022/12/05 03:03:03;;;;;;;10.57;3.00;;;23.40;49.30;;;;;;5031712;28;20227;-51
2022/12/05 03:05:42;;;;;;;9.63;2.78;;;23.40;49.30;;;;;;5044183;28;20196;-52
2022/12/05 03:08:18;;;;;;;9.63;3.10;;;23.40;49.30;;;;;;5033695;28;20688;-55
2022/12/05 03:10:51;;;;;;;8.68;3.00;;;23.40;49.30;;;;;;5035356;28;20566;-50
2022/12/05 03:13:26;;;;;;;11.77;2.53;;;23.40;49.30;;;;;;5032773;28;20652;-49
2022/12/05 03:16:01;;;;;;;10.48;2.85;;;23.40;49.40;;;;;;5046238;28;20199;-49
2022/12/05 03:18:39;;;;;;;10.65;2.75;;;23.40;49.40;;;;;;5039515;28;20212;-50
2022/12/05 03:21:20;;;;;;;8.70;2.67;;;23.40;49.40;;;;;;5033537;28;20200;-51
2022/12/05 03:23:54;;;;;;;6.57;2.10;;;23.40;49.30;;;;;;5033171;28;20668;-49
2022/12/05 03:26:36;;;;;;;9.55;2.75;;;23.40;49.30;;;;;;5047252;28;20200;-54
2022/12/05 03:29:26;;;;;;;9.95;2.65;;;23.40;49.30;;;;;;5034941;28;20224;-52
2022/12/05 03:32:05;;;;;;;9.32;2.40;;;23.40;49.20;;;;;;5053765;28;20196;-56
2022/12/05 03:35:02;;;;;;;9.57;2.88;;;23.50;49.20;;;;;;5052639;28;20199;-50
2022/12/05 03:37:44;;;;;;;5.88;2.00;;;23.40;49.30;;;;;;5040347;28;20203;-51
2022/12/05 03:40:24;;;;;;;7.32;2.33;;;23.50;49.20;;;;;;5051975;28;20268;-50
2022/12/05 03:42:59;;;;;;;6.30;2.25;;;23.50;49.30;;;;;;5034656;28;20602;-49
2022/12/05 03:45:36;;;;;;;8.90;2.55;;;23.50;49.30;;;;;;5040255;28;20191;-52
2022/12/05 03:48:13;;;;;;;7.18;2.45;;;23.40;49.30;;;;;;5052803;28;20225;-52
2022/12/05 03:50:50;;;;;;;9.05;2.53;;;23.40;49.20;;;;;;5047085;28;20203;-49
2022/12/05 03:53:24;;;;;;;5.00;1.85;;;23.40;49.20;;;;;;5032424;28;20196;-52
2022/12/05 03:56:00;;;;;;;6.65;2.25;;;23.40;49.20;;;;;;5033146;28;20196;-53
2022/12/05 03:58:37;;;;;;;6.25;2.40;;;23.40;49.20;;;;;;5042238;28;20241;-51
2022/12/05 04:01:10;;;;;;;7.85;2.03;;;23.40;49.10;;;;;;5051140;28;20244;-54
2022/12/05 04:03:45;;;;;;;7.22;2.17;;;23.40;49.10;;;;;;5052513;28;20218;-56
2022/12/05 04:06:26;;;;;;;6.93;2.30;;;23.40;49.10;;;;;;5048411;28;20199;-56
2022/12/05 04:09:00;;;;;;;5.80;2.17;;;23.40;49.00;;;;;;5047173;28;20219;-54
2022/12/05 04:11:33;;;;;;;6.07;2.10;;;23.40;49.00;;;;;;5052613;28;20192;-53
2022/12/05 04:14:08;;;;;;;5.70;1.80;;;23.40;49.00;;;;;;5052241;28;20195;-57
2022/12/05 04:22:22;;;;;;;6.18;1.98;;;23.40;49.40;;;;;;5052992;28;20192;-58
2022/12/05 04:27:59;;;;;;;8.20;2.67;;;23.40;49.00;;;;;;5010521;28;20624;-57
2022/12/05 04:30:33;;;;;;;7.28;3.50;;;23.40;49.00;;;;;;5032836;28;20203;-55
2022/12/05 04:33:10;;;;;;;7.75;3.28;;;23.40;49.00;;;;;;5032348;28;20675;-52
2022/12/05 04:35:45;;;;;;;8.32;3.97;;;23.40;49.00;;;;;;5031952;28;20188;-55
2022/12/05 04:38:21;;;;;;;9.15;4.22;;;23.40;49.00;;;;;;5032615;28;20696;-56
2022/12/05 04:40:58;;;;;;;8.98;3.97;;;23.40;49.00;;;;;;5031281;28;20683;-50
2022/12/05 04:43:30;;;;;;;8.30;3.47;;;23.40;49.00;;;;;;5032553;28;20223;-58
2022/12/05 04:46:02;;;;;;;7.70;3.50;;;23.40;48.90;;;;;;5031718;28;20200;-55
2022/12/05 04:48:35;;;;;;;6.70;3.65;;;23.40;49.00;;;;;;5032470;28;20535;-57
2022/12/05 04:51:09;;;;;;;7.47;3.58;;;23.40;49.00;;;;;;5031867;28;20200;-59
2022/12/05 04:53:44;;;;;;;8.40;3.95;;;23.40;49.00;;;;;;5033632;28;20210;-52
2022/12/05 04:56:17;;;;;;;8.07;3.95;;;23.40;49.00;;;;;;5047787;28;20202;-52
2022/12/05 04:58:48;;;;;;;8.50;3.47;;;23.40;49.20;;;;;;5053985;28;20219;-52
2022/12/05 05:01:23;;;;;;;6.32;3.42;;;23.40;49.20;;;;;;5031724;28;20972;-53
2022/12/05 05:03:57;;;;;;;8.73;3.83;;;23.40;49.20;;;;;;5031847;28;20195;-52
2022/12/05 05:06:28;;;;;;;8.38;3.65;;;23.40;49.20;;;;;;5031788;28;20202;-57
2022/12/05 05:09:01;;;;;;;7.32;3.45;;;23.30;49.20;;;;;;5036614;28;20219;-55
2022/12/05 05:11:34;;;;;;;10.05;3.70;;;23.40;49.30;;;;;;5048286;28;20566;-54
2022/12/05 05:14:05;;;;;;;8.20;3.35;;;23.40;49.20;;;;;;5031171;28;20204;-56
2022/12/05 05:16:37;;;;;;;6.18;3.15;;;23.40;49.20;;;;;;5031702;28;20575;-55
2022/12/05 05:19:08;;;;;;;7.47;3.45;;;23.30;49.20;;;;;;5030821;28;20814;-49
2022/12/05 05:21:40;;;;;;;8.00;3.40;;;23.30;49.20;;;;;;5030947;28;20220;-56
2022/12/05 05:24:14;;;;;;;5.85;2.95;;;23.30;49.20;;;;;;5031558;28;20203;-54
2022/12/05 05:26:46;;;;;;;6.70;2.97;;;23.30;49.20;;;;;;5030432;28;20283;-57
2022/12/05 05:29:20;;;;;;;8.43;3.50;;;23.30;49.20;;;;;;5035236;28;20226;-54
2022/12/05 05:31:51;;;;;;;6.20;3.10;;;23.30;49.20;;;;;;5035248;28;20198;-57
2022/12/05 05:34:22;;;;;;;6.70;3.08;;;23.30;49.30;;;;;;5030645;28;20200;-57
2022/12/05 05:36:55;;;;;;;5.70;3.03;;;23.30;49.30;;;;;;5031587;28;20192;-58
2022/12/05 05:39:28;;;;;;;7.03;3.30;;;23.30;49.20;;;;;;5031735;28;20212;-59
2022/12/05 05:41:59;;;;;;;6.70;3.22;;;23.30;49.30;;;;;;5031183;28;20199;-57
2022/12/05 05:44:30;;;;;;;6.95;2.88;;;23.30;49.30;;;;;;5031329;28;20674;-56
2022/12/05 05:47:00;;;;;;;6.82;2.83;;;23.30;49.30;;;;;;5031169;28;20785;-54
2022/12/05 05:49:31;;;;;;;7.70;3.28;;;23.30;49.30;;;;;;5042690;28;20566;-58
2022/12/05 05:52:02;;;;;;;7.85;3.40;;;23.30;49.30;;;;;;5037176;28;20188;-58
2022/12/05 05:54:35;;;;;;;7.10;2.80;;;23.30;49.30;;;;;;5033581;28;20196;-58
2022/12/05 05:57:06;;;;;;;5.78;3.25;;;23.30;49.30;;;;;;5050029;28;20195;-59
2022/12/05 05:59:37;;;;;;;5.82;3.00;;;23.20;49.30;;;;;;5044066;28;20226;-54
2022/12/05 06:02:08;;;;;;;7.18;3.08;;;23.30;49.30;;;;;;5031193;28;20799;-56
2022/12/05 06:04:38;;;;;;;9.35;2.85;;;23.20;49.30;;;;;;5030759;28;20226;-53
2022/12/05 06:07:09;;;;;;;4.53;2.45;;;23.20;49.40;;;;;;5031732;28;20199;-58
2022/12/05 06:09:42;;;;;;;8.15;2.90;;;23.20;49.40;;;;;;5031325;28;20224;-58
2022/12/05 06:12:13;;;;;;;6.90;3.25;;;23.20;49.40;;;;;;5030527;28;20192;-54
2022/12/05 06:14:44;;;;;;;8.10;3.08;;;23.20;49.50;;;;;;5031009;28;20196;-55
2022/12/05 06:17:15;;;;;;;7.20;2.90;;;23.20;49.50;;;;;;5030480;28;20714;-53
2022/12/05 06:19:45;;;;;;;6.82;3.10;;;23.20;49.50;;;;;;5029846;28;20301;-58
2022/12/05 06:22:16;;;;;;;5.65;3.00;;;23.10;49.50;;;;;;5030649;28;20280;-58
2022/12/05 06:24:49;;;;;;;4.90;2.88;;;23.20;49.50;;;;;;5030799;28;20206;-59
2022/12/05 06:27:20;;;;;;;5.95;2.75;;;23.20;49.50;;;;;;5030683;28;20188;-58
2022/12/05 06:29:50;;;;;;;7.40;2.95;;;23.10;49.40;;;;;;5032558;28;20212;-57
2022/12/05 06:32:21;;;;;;;6.03;2.70;;;23.10;49.40;;;;;;5030845;28;20663;-59
2022/12/05 06:34:52;;;;;;;7.32;2.60;;;23.10;49.40;;;;;;5030783;28;20536;-59
2022/12/05 06:37:23;;;;;;;5.22;2.17;;;23.10;49.40;;;;;;5031016;28;20540;-55
2022/12/05 06:39:56;;;;;;;9.82;2.90;;;23.10;49.40;;;;;;5034890;28;20215;-59
2022/12/05 06:42:27;;;;;;;6.72;2.67;;;23.10;49.50;;;;;;5034733;28;20295;-58
2022/12/05 06:44:58;;;;;;;6.82;2.50;;;23.10;49.50;;;;;;5034998;28;20200;-59
2022/12/05 06:47:28;;;;;;;6.28;2.45;;;23.10;49.50;;;;;;5034953;28;20192;-58
2022/12/05 06:49:59;;;;;;;6.13;2.58;;;23.10;49.60;;;;;;5035011;28;20224;-58
2022/12/05 06:52:30;;;;;;;5.05;2.67;;;23.10;49.50;;;;;;5054154;28;20198;-57
2022/12/05 06:55:03;;;;;;;6.03;2.95;;;23.10;49.60;;;;;;5054865;28;20203;-59
2022/12/05 06:57:33;;;;;;;6.63;2.53;;;23.00;49.60;;;;;;5054822;28;20199;-58
2022/12/05 07:02:48;;;;;;;5.97;2.63;;;23.00;49.60;;;;;;5034590;28;20671;-55
2022/12/05 07:05:20;;;;;;;5.57;2.67;;;23.00;49.50;;;;;;5034163;28;20195;-58
2022/12/05 07:07:50;;;;;;;4.10;2.40;;;23.00;49.50;;;;;;5034025;28;20214;-56
2022/12/05 07:10:23;;;;;;;5.43;2.42;;;23.00;49.60;;;;;;5034098;28;20199;-53
2022/12/05 07:12:55;;;;;;;6.68;2.70;;;23.00;49.50;;;;;;5034311;28;20233;-58
2022/12/05 07:15:25;;;;;;;6.32;2.80;;;23.00;49.60;;;;;;5034242;28;20279;-54
2022/12/05 07:17:56;;;;;;;4.57;2.10;;;23.00;49.60;;;;;;5034318;28;20196;-55
2022/12/05 07:20:27;;;;;;;5.88;2.45;;;23.00;49.60;;;;;;5033493;28;20234;-52
2022/12/05 07:22:58;;;;;;;6.80;3.15;;;22.90;49.50;;;;;;5033911;28;20666;-58
2022/12/05 07:25:30;;;;;;;6.68;2.40;;;23.00;49.60;;;;;;5034157;28;20563;-55
2022/12/05 07:28:01;;;;;;;5.00;2.13;;;22.90;50.20;;;;;;5034030;28;20196;-56
2022/12/05 07:30:32;;;;;;;5.78;2.65;;;22.90;49.60;;;;;;5047329;28;20573;-57
2022/12/05 07:33:03;;;;;;;4.13;2.30;;;22.90;49.60;;;;;;5054076;28;20196;-53
2022/12/05 07:35:34;;;;;;;8.75;2.85;;;22.90;49.60;;;;;;5046365;28;20204;-56
2022/12/05 07:38:05;;;;;;;5.85;2.35;;;22.90;49.60;;;;;;5033857;28;20200;-59
2022/12/05 07:40:39;;;;;;;6.28;2.58;;;22.90;49.60;;;;;;5033759;28;20238;-55
2022/12/05 07:43:10;;;;;;;4.32;2.20;;;22.90;49.50;;;;;;5033612;28;20656;-57
2022/12/05 07:45:41;;;;;;;5.90;2.08;;;22.90;49.60;;;;;;5034244;28;20682;-50
2022/12/05 07:48:12;;;;;;;6.40;2.70;;;22.90;49.50;;;;;;5034254;28;20184;-52
2022/12/05 07:50:43;;;;;;;4.72;2.30;;;22.90;49.50;;;;;;5033206;28;20594;-57
2022/12/05 07:53:14;;;;;;;4.18;2.08;;;22.90;49.50;;;;;;5044327;28;21087;-58
2022/12/05 07:55:47;;;;;;;4.70;2.47;;;22.80;49.50;;;;;;5053279;28;20601;-60
2022/12/05 07:58:18;;;;;;;15.70;3.50;;;22.80;49.50;;;;;;5052993;28;20730;-60
2022/12/05 08:00:48;;;;;;;13.68;3.00;;;22.80;50.60;;;;;;5037303;28;20692;-60
2022/12/05 08:03:19;;;;;;;12.90;3.13;;;22.70;51.00;;;;;;5033286;28;20202;-54
2022/12/05 08:05:50;;;;;;;11.43;2.80;;;22.60;51.20;;;;;;5033203;28;20200;-51
2022/12/05 08:08:22;;;;;;;12.23;3.45;;;22.50;51.20;;;;;;5033060;28;20307;-49
2022/12/05 08:10:55;;;;;;;11.32;2.60;;;22.50;51.40;;;;;;5033326;28;20591;-52
2022/12/05 08:13:26;;;;;;;8.70;2.58;;;22.40;51.40;;;;;;5037210;28;20547;-47
2022/12/05 08:15:56;;;;;;;8.60;2.97;;;22.40;51.30;;;;;;5031850;28;20593;-51
2022/12/05 08:18:27;;;;;;;8.85;2.60;;;22.40;51.20;;;;;;5032356;28;20216;-58
2022/12/05 08:21:02;;;;;;;8.75;2.55;;;22.40;51.20;;;;;;5031667;28;20224;-50
2022/12/05 08:23:33;;;;;;;10.63;2.75;;;22.40;51.20;;;;;;5033284;28;20196;-49
2022/12/05 08:26:10;;;;;;;7.55;2.40;;;22.40;51.10;;;;;;5038952;28;20194;-53
2022/12/05 08:28:41;;;;;;;9.70;2.85;;;22.50;51.20;;;;;;5031430;28;20226;-55
2022/12/05 08:31:14;;;;;;;9.80;2.65;;;22.50;51.10;;;;;;5035314;28;20197;-54
2022/12/05 08:33:45;;;;;;;12.05;3.10;;;22.40;51.10;;;;;;5031528;28;20203;-55
2022/12/05 08:36:17;;;;;;;10.07;2.72;;;22.40;51.00;;;;;;5032012;28;20656;-58
2022/12/05 08:38:48;;;;;;;7.78;2.97;;;22.40;51.00;;;;;;5034065;28;20215;-55
2022/12/05 08:41:21;;;;;;;9.40;2.58;;;22.40;51.00;;;;;;5052374;28;20219;-53
2022/12/05 08:43:52;;;;;;;6.70;2.40;;;22.40;50.90;;;;;;5052462;28;20191;-48
2022/12/05 08:46:22;;;;;;;8.90;2.67;;;22.40;51.00;;;;;;5053635;28;20198;-56
2022/12/05 08:48:54;;;;;;;5.93;2.47;;;22.40;51.00;;;;;;5032018;28;20223;-48
2022/12/05 08:51:25;;;;;;;7.50;2.50;;;22.40;50.90;;;;;;5031116;28;20665;-54
2022/12/05 08:53:56;;;;;;;7.05;2.80;;;22.40;50.90;;;;;;5032498;28;20195;-51
2022/12/05 08:56:28;;;;;;;5.63;2.17;;;22.40;50.90;;;;;;5031442;28;20952;-49
2022/12/05 08:59:00;;;;;;;4.70;2.08;;;22.40;50.80;;;;;;5031887;28;20302;-48
2022/12/05 09:01:32;;;;;;;7.72;2.03;;;22.40;50.80;;;;;;5050372;28;20273;-48
2022/12/05 09:04:03;;;;;;;5.78;2.28;;;22.40;50.70;;;;;;5045662;28;20346;-53
2022/12/05 09:06:35;;;;;;;4.85;1.90;;;22.40;50.70;;;;;;5037940;28;20223;-54
2022/12/05 09:09:08;;;;;;;6.88;1.98;;;22.40;50.70;;;;;;5051864;28;20572;-49
2022/12/05 09:11:45;;;;;;;5.82;2.33;;;22.40;50.70;;;;;;5050734;28;20200;-53
2022/12/05 09:14:16;;;;;;;7.47;2.28;;;22.40;50.60;;;;;;5051735;28;20591;-48
2022/12/05 09:16:48;;;;;;;6.78;2.13;;;22.40;50.60;;;;;;5050540;28;20554;-54
2022/12/05 09:19:22;;;;;;;5.25;1.95;;;22.40;50.60;;;;;;5051532;28;20529;-50
2022/12/05 09:21:53;;;;;;;6.90;2.28;;;22.40;50.60;;;;;;5050627;28;20218;-55
2022/12/05 09:24:24;;;;;;;5.38;2.13;;;22.40;50.60;;;;;;5051577;28;20664;-54
2022/12/05 09:26:57;;;;;;;5.38;1.98;;;22.30;50.60;;;;;;5051436;28;20195;-48
2022/12/05 09:29:28;;;;;;;5.88;2.10;;;22.40;50.60;;;;;;5046236;28;20228;-58
2022/12/05 09:31:59;;;;;;;5.22;2.00;;;22.30;50.50;;;;;;5031713;28;20228;-48
2022/12/05 09:34:29;;;;;;;4.57;2.17;;;22.30;50.50;;;;;;5031030;28;20192;-48
2022/12/05 09:37:01;;;;;;;6.03;2.13;;;22.30;50.50;;;;;;5031427;28;20192;-49
2022/12/05 09:39:32;;;;;;;4.25;1.90;;;22.30;50.70;;;;;;5031137;28;20306;-54
2022/12/05 09:42:22;;;;;;;5.05;2.15;;;22.30;50.40;;;;;;5031323;28;20212;-48
2022/12/05 09:45:27;;;;;;;4.20;2.17;;;22.30;50.40;;;;;;5030834;28;20628;-52
2022/12/05 09:50:42;;;;;;;5.95;2.03;;;22.30;50.30;;;;;;5029043;28;20245;-46
2022/12/05 09:53:26;;;;;;;3.30;1.45;;;22.30;50.30;;;;;;5031235;28;20200;-46
2022/12/05 09:56:03;;;;;;;3.92;1.55;;;22.30;50.40;;;;;;5030683;28;20950;-52
2022/12/05 09:58:44;;;;;;;4.78;2.05;;;22.30;50.50;;;;;;5031016;28;20216;-47
2022/12/05 10:01:28;;;;;;;5.18;1.77;;;22.20;50.40;;;;;;5011196;28;20597;-44
2022/12/05 10:04:18;;;;;;;5.05;1.83;;;22.20;50.40;;;;;;5010480;28;20215;-46
2022/12/05 10:06:57;;;;;;;3.40;1.70;;;22.20;50.40;;;;;;5010272;28;20189;-47
2022/12/05 10:09:49;;;;;;;4.18;1.77;;;22.20;50.30;;;;;;5011350;28;20212;-44
2022/12/05 10:12:35;;;;;;;3.80;1.58;;;22.20;50.30;;;;;;5010565;28;20683;-49
2022/12/05 10:15:14;;;;;;;3.15;1.70;;;22.20;50.30;;;;;;5015335;28;20211;-43
2022/12/05 10:17:49;;;;;;;4.85;1.75;;;22.20;50.30;;;;;;5014659;28;20216;-42
2022/12/05 10:20:25;;;;;;;3.42;1.63;;;22.20;50.20;;;;;;5014386;28;20247;-50
2022/12/05 10:22:59;;;;;;;2.78;1.70;;;22.10;50.20;;;;;;5015029;28;20216;-45
2022/12/05 10:25:31;;;;;;;3.72;1.70;;;22.10;50.20;;;;;;5014067;28;20204;-49
2022/12/05 10:28:07;;;;;;;4.07;1.70;;;22.10;50.20;;;;;;5014689;28;20668;-48
2022/12/05 10:30:42;;;;;;;3.90;1.77;;;22.10;50.20;;;;;;5014358;28;20207;-44
2022/12/05 10:33:20;;;;;;;4.03;1.70;;;22.00;50.20;;;;;;5014460;28;20196;-44
2022/12/05 10:35:53;;;;;;;4.60;1.60;;;22.10;50.30;;;;;;5014187;28;20201;-49
2022/12/05 10:38:29;;;;;;;3.65;1.55;;;22.00;50.30;;;;;;5015202;28;20268;-44
2022/12/05 10:41:05;;;;;;;2.53;1.50;;;22.00;50.30;;;;;;5013792;28;20232;-45
2022/12/05 10:43:38;;;;;;;2.63;1.52;;;22.00;50.30;;;;;;5026495;28;20211;-46
2022/12/05 10:46:11;;;;;;;4.18;1.67;;;22.00;50.30;;;;;;5033410;28;20251;-44
2022/12/05 10:48:43;;;;;;;3.08;1.45;;;22.00;50.30;;;;;;5049918;22;20215;-49
2022/12/05 10:51:17;;;;;;;3.08;1.63;;;21.90;50.20;;;;;;5053593;28;20682;-50
2022/12/05 10:53:51;;;;;;;3.30;1.38;;;21.90;50.20;;;;;;5053040;28;20195;-54
2022/12/05 10:56:45;;;;;;;2.83;1.50;;;21.90;50.20;;;;;;5054587;28;20589;-54
2022/12/05 10:59:18;;;;;;;5.20;1.90;;;21.90;50.20;;;;;;5057595;28;20222;-51
2022/12/05 11:01:53;;;;;;;3.22;1.67;;;21.90;50.20;;;;;;5074243;28;20229;-54
2022/12/05 11:04:26;;;;;;;4.38;1.63;;;21.90;50.80;;;;;;5074449;28;20597;-53
2022/12/05 11:07:01;;;;;;;2.83;1.27;;;21.80;50.20;;;;;;5074531;28;20214;-53
2022/12/05 11:09:33;;;;;;;3.35;1.67;;;21.80;50.20;;;;;;5074212;28;20217;-52
2022/12/05 11:12:17;;;;;;;3.70;1.45;;;21.80;50.20;;;;;;5074619;28;20199;-54
2022/12/05 11:15:02;;;;;;;3.22;1.75;;;21.80;50.20;;;;;;5074444;28;20300;-51
2022/12/05 11:17:38;;;;;;;3.17;1.60;;;21.70;50.20;;;;;;5074470;28;20190;-53
2022/12/05 11:20:41;;;;;;;3.15;1.35;;;21.70;50.20;;;;;;5065723;28;20219;-51
2022/12/05 11:23:27;;;;;;;3.53;1.38;;;21.70;50.30;;;;;;5053621;28;20241;-51
2022/12/05 11:25:58;;;;;;;2.83;1.42;;;21.70;50.20;;;;;;5054061;28;20210;-54
2022/12/05 11:28:39;;;;;;;3.70;1.50;;;21.70;50.20;;;;;;5054090;28;20223;-52
2022/12/05 11:31:24;;;;;;;3.88;1.42;;;21.70;50.20;;;;;;5054203;28;20195;-51
2022/12/05 11:34:16;;;;;;;3.05;1.27;;;21.60;50.20;;;;;;5054504;28;20199;-53
2022/12/05 11:36:51;;;;;;;3.60;1.48;;;21.60;50.20;;;;;;5054085;28;20195;-54
2022/12/05 11:39:22;;;;;;;2.72;1.30;;;21.60;50.20;;;;;;5053288;28;20214;-51
2022/12/05 11:42:19;;;;;;;3.10;1.42;;;21.60;50.20;;;;;;5053730;28;20223;-52
2022/12/05 11:45:14;;;;;;;3.38;1.60;;;21.60;50.20;;;;;;5053954;28;20214;-54
2022/12/05 11:48:05;;;;;;;3.17;1.45;;;21.50;50.20;;;;;;5053721;28;20195;-53
2022/12/05 11:50:44;;;;;;;2.38;1.33;;;21.50;50.10;;;;;;5053476;28;20297;-51
2022/12/05 11:53:41;;;;;;;2.47;1.30;;;21.50;50.10;;;;;;5053144;28;20199;-51
2022/12/05 11:56:22;;;;;;;3.92;1.60;;;21.50;50.10;;;;;;5053635;28;20199;-50
2022/12/05 11:59:23;;;;;;;2.13;1.50;;;21.50;50.10;;;;;;5053462;28;20235;-53
2022/12/05 12:02:03;;;;;;;2.70;1.20;;;21.50;50.10;;;;;;5053050;28;20583;-54
2022/12/05 12:05:00;;;;;;;3.35;1.48;;;21.40;50.10;;;;;;5053405;28;20650;-55
2022/12/05 12:07:48;;;;;;;2.65;1.30;;;21.40;50.10;;;;;;5053069;28;20644;-52
2022/12/05 12:10:29;;;;;;;3.83;1.67;;;21.40;50.10;;;;;;5053168;28;20227;-55
2022/12/05 12:13:17;;;;;;;2.67;1.33;;;21.30;50.10;;;;;;5053151;28;20191;-55
2022/12/05 12:16:07;;;;;;;3.83;1.55;;;21.30;50.10;;;;;;5053188;28;20222;-51
2022/12/05 12:19:00;;;;;;;2.55;1.40;;;21.30;50.00;;;;;;5053153;28;20219;-57
2022/12/05 12:21:42;;;;;;;2.80;1.35;;;21.30;50.00;;;;;;5053108;28;20203;-55
2022/12/05 12:24:31;;;;;;;1.90;1.17;;;21.30;50.00;;;;;;5053116;28;20195;-52
2022/12/05 12:27:16;;;;;;;4.25;1.50;;;21.30;50.00;;;;;;5052188;28;20200;-53
2022/12/05 12:30:01;;;;;;;3.08;1.40;;;21.30;49.90;;;;;;5052571;28;20216;-57
2022/12/05 12:32:41;;;;;;;2.90;1.27;;;21.20;49.90;;;;;;5052953;28;20317;-54
2022/12/05 12:35:31;;;;;;;3.97;1.60;;;21.20;49.90;;;;;;5052119;28;20577;-51
2022/12/05 12:38:26;;;;;;;2.58;1.50;;;21.20;49.90;;;;;;5052241;28;20191;-52
2022/12/05 12:41:03;;;;;;;2.58;1.20;;;21.10;49.90;;;;;;5052047;28;20192;-54
2022/12/05 12:43:50;;;;;;;3.15;1.60;;;21.10;50.00;;;;;;5032473;28;20224;-49
2022/12/05 12:46:34;;;;;;;3.28;1.42;;;21.10;50.00;;;;;;5032813;28;20536;-54
2022/12/05 12:49:34;;;;;;;1.52;1.02;;;21.10;50.00;;;;;;5032898;28;20239;-53
2022/12/05 12:52:06;;;;;;;2.45;1.25;;;21.10;50.00;;;;;;5032559;28;20200;-49
2022/12/05 12:54:50;;;;;;;2.65;1.40;;;21.10;49.90;;;;;;5032455;28;20266;-51
2022/12/05 12:57:28;;;;;;;2.28;1.10;;;21.10;49.80;;;;;;5046155;28;20191;-50
2022/12/05 13:00:11;;;;;;;2.83;1.20;;;21.00;49.80;;;;;;5052082;28;20219;-55
2022/12/05 13:02:46;;;;;;;2.53;1.10;;;21.00;49.80;;;;;;5052047;28;20282;-58
2022/12/05 13:05:25;;;;;;;1.83;1.05;;;21.00;49.80;;;;;;5052313;28;20206;-55
2022/12/05 13:08:00;;;;;;;2.67;1.30;;;21.00;49.80;;;;;;5052192;28;20203;-57
2022/12/05 13:10:35;;;;;;;1.60;1.20;;;21.00;49.80;;;;;;5051761;28;20211;-55
2022/12/05 13:13:09;;;;;;;2.22;1.15;;;21.00;49.80;;;;;;5052225;28;20206;-55
2022/12/05 13:15:43;;;;;;;2.05;1.20;;;20.90;49.80;;;;;;5052114;28;20202;-57
2022/12/05 13:18:19;;;;;;;1.88;1.00;;;20.90;49.80;;;;;;5052023;28;20291;-58
2022/12/05 13:20:52;;;;;;;2.45;1.00;;;20.90;49.80;;;;;;5052011;28;20205;-57
2022/12/05 13:23:25;;;;;;;1.73;1.20;;;20.80;49.80;;;;;;5051953;28;20227;-56
2022/12/05 13:25:58;;;;;;;2.25;1.10;;;20.80;49.80;;;;;;5051969;28;20234;-57
2022/12/05 13:28:41;;;;;;;1.88;1.20;;;20.80;49.70;;;;;;5052121;28;20198;-48
2022/12/05 13:31:15;;;;;;;1.77;0.90;;;20.80;49.70;;;;;;5051986;28;20195;-58
2022/12/05 13:33:47;;;;;;;1.98;1.20;;;20.80;49.70;;;;;;5051905;28;20564;-56
2022/12/05 13:42:15;;;;;;;2.60;1.33;;;20.70;49.60;;;;;;5051549;28;20198;-55
2022/12/05 13:44:51;;;;;;;2.17;1.13;;;20.70;49.60;;;;;;5051925;28;20261;-53
2022/12/05 13:47:32;;;;;;;2.22;1.00;;;20.70;49.60;;;;;;5051408;28;20199;-57